Huntington Center, Vermont
Current Conditions -  °F | °C
As of 8:03 PM on Tuesday 21 Oct 2014 (Local Time) from KBTV Reporting Station
Overcast Overcast  
Wind Chill: 47°   Ceiling: 400
Heat Index: 49°   Visibility: 7mi
Dew Point: 46°   Wind: 6mph
Humidity: 90%   Direction: 340°NNW
Pressure: 30.05"   Gusts: NA
Location:  44.3099°N, 72.982°W
Report Text: KBTV 220003Z 34005KT 7SM BKN004 OVC055 09/08 A3005 RMK AO2 T00940078 $
Loading
Personal Weather Stations






























Interactive Weather Map
Tropical Storm Tracking
New forecast layout! Learn more

10-Day Weather Forecast

Advertisements
Track Severe Weather on mobile